createdAt,value
2018-09-30T00:00:30.099Z,95656.52
2018-09-30T00:02:58.743Z,95654.95
2018-09-30T00:05:27.398Z,95652.92
2018-09-30T00:07:56.063Z,95656.09
2018-09-30T00:10:24.692Z,95656.30
2018-09-30T00:12:53.403Z,95659.36
2018-09-30T00:15:22.069Z,95665.80
2018-09-30T00:17:50.714Z,95661.05
2018-09-30T00:20:19.364Z,95662.52
2018-09-30T00:22:48.045Z,95670.77
2018-09-30T00:25:21.999Z,95667.80
2018-09-30T00:27:50.761Z,95668.04
2018-09-30T00:30:19.479Z,95674.14
2018-09-30T00:32:48.283Z,95673.59
2018-09-30T00:35:16.968Z,95670.32
2018-09-30T00:37:45.752Z,95668.61
2018-09-30T00:40:14.453Z,95671.98
2018-09-30T00:42:43.119Z,95668.92
2018-09-30T00:45:11.799Z,95679.03
2018-09-30T00:47:40.532Z,95680.40
2018-09-30T00:50:09.196Z,95685.30
2018-09-30T00:52:37.916Z,95690.52
2018-09-30T00:55:06.684Z,95501.88
2018-09-30T00:57:35.345Z,95694.56
2018-09-30T01:00:05.812Z,95700.42
2018-09-30T01:02:34.588Z,95688.11
2018-09-30T01:05:03.748Z,95703.59
2018-09-30T01:07:32.515Z,95703.22
2018-09-30T01:10:01.247Z,95706.66
2018-09-30T01:12:29.920Z,95707.09
2018-09-30T01:14:58.568Z,95703.41
2018-09-30T01:17:27.210Z,95703.02
2018-09-30T01:19:55.901Z,95706.06
2018-09-30T01:22:24.645Z,95703.59
2018-09-30T01:24:53.400Z,95704.55
2018-09-30T01:27:22.090Z,95700.84
2018-09-30T01:29:50.787Z,95521.16
2018-09-30T01:32:19.420Z,95705.36
2018-09-30T01:34:48.176Z,95710.14
2018-09-30T01:37:16.798Z,95708.09
2018-09-30T01:39:45.448Z,95708.52
2018-09-30T01:42:14.186Z,95710.05
2018-09-30T01:44:42.896Z,95711.03
2018-09-30T01:47:11.567Z,95708.33
2018-09-30T01:49:40.266Z,95711.74
2018-09-30T01:52:20.055Z,95705.56
2018-09-30T01:54:48.796Z,95713.03
2018-09-30T01:57:17.498Z,95712.38
2018-09-30T01:59:46.217Z,95715.42
2018-09-30T02:02:14.923Z,95717.17
2018-09-30T02:04:43.607Z,95713.55
2018-09-30T02:07:12.305Z,95713.30
2018-09-30T02:09:41.062Z,95723.00
2018-09-30T02:12:09.779Z,95717.23
2018-09-30T02:14:38.538Z,95719.78
2018-09-30T02:17:07.183Z,95715.23
2018-09-30T02:19:35.872Z,95716.58
2018-09-30T02:22:04.513Z,95717.84
2018-09-30T02:24:33.207Z,95715.14
2018-09-30T02:27:01.909Z,95713.03
2018-09-30T02:29:30.604Z,95718.39
2018-09-30T02:31:59.303Z,95713.14
2018-09-30T02:34:28.004Z,95707.03
2018-09-30T02:36:56.700Z,95704.17
2018-09-30T02:39:25.418Z,95707.38
2018-09-30T02:41:54.216Z,95711.30
2018-09-30T02:44:22.872Z,95720.63
2018-09-30T02:46:51.510Z,95722.39
2018-09-30T02:49:20.286Z,95721.63
2018-09-30T02:51:48.973Z,95721.50
2018-09-30T02:54:17.607Z,95723.67
2018-09-30T02:56:46.271Z,95725.57
2018-09-30T02:59:14.912Z,95726.92
2018-09-30T03:01:43.637Z,95732.11
2018-09-30T03:04:12.363Z,95728.33
2018-09-30T03:06:46.291Z,95740.30
2018-09-30T03:09:17.155Z,95736.50
2018-09-30T03:11:45.840Z,95738.02
2018-09-30T03:14:15.795Z,95740.25
2018-09-30T03:16:45.224Z,95741.52
2018-09-30T03:19:14.252Z,95747.33
2018-09-30T03:21:42.907Z,95743.78
2018-09-30T03:24:12.340Z,95747.75
2018-09-30T03:26:41.798Z,95746.27
2018-09-30T03:29:10.584Z,95747.06
2018-09-30T03:31:39.285Z,95747.53
2018-09-30T03:34:08.287Z,95749.45
2018-09-30T03:36:36.971Z,95756.91
2018-09-30T03:39:07.280Z,95756.60
2018-09-30T03:41:36.296Z,95757.78
2018-09-30T03:44:04.988Z,95760.73
2018-09-30T03:46:33.776Z,95762.87
2018-09-30T03:49:02.439Z,95763.09
2018-09-30T03:51:31.084Z,95763.34
2018-09-30T03:53:59.808Z,95767.33
2018-09-30T03:56:28.551Z,95765.66
2018-09-30T03:58:57.202Z,95767.15
2018-09-30T04:01:26.068Z,95770.97
2018-09-30T04:03:54.893Z,95762.09
2018-09-30T04:06:23.568Z,95769.14
2018-09-30T04:08:52.553Z,95772.23
2018-09-30T04:11:21.355Z,95766.27
2018-09-30T04:13:50.065Z,95772.32
2018-09-30T04:16:18.823Z,95578.63
2018-09-30T04:18:47.556Z,95769.70
2018-09-30T04:21:16.232Z,95771.32
2018-09-30T04:23:44.926Z,95777.81
2018-09-30T04:26:13.587Z,95777.73
2018-09-30T04:28:42.343Z,95781.84
2018-09-30T04:31:11.034Z,95744.65
2018-09-30T04:33:39.748Z,95790.41
2018-09-30T04:36:08.433Z,95794.63
2018-09-30T04:38:37.125Z,95797.80
2018-09-30T04:41:05.856Z,95802.06
2018-09-30T04:43:34.484Z,95800.64
2018-09-30T04:46:03.127Z,95802.39
2018-09-30T04:48:31.772Z,95811.34
2018-09-30T04:51:00.428Z,95808.78
2018-09-30T04:53:29.166Z,95808.86
2018-09-30T04:55:57.819Z,95798.70
2018-09-30T04:58:26.450Z,95799.01
2018-09-30T05:00:55.220Z,95804.05
2018-09-30T05:03:23.949Z,95804.52
2018-09-30T05:05:52.627Z,95796.16
2018-09-30T05:08:21.321Z,95802.67
2018-09-30T05:10:50.032Z,95807.09
2018-09-30T05:13:18.685Z,95803.63
2018-09-30T05:15:47.417Z,95809.91
2018-09-30T05:18:16.146Z,95804.17
2018-09-30T05:20:44.794Z,95811.18
2018-09-30T05:23:13.459Z,95810.22
2018-09-30T05:25:42.226Z,95813.34
2018-09-30T05:28:10.885Z,95812.17
2018-09-30T05:30:39.631Z,95814.50
2018-09-30T05:33:08.331Z,95816.14
2018-09-30T05:35:37.024Z,95822.08
2018-09-30T05:38:05.697Z,95826.70
2018-09-30T05:40:34.438Z,95822.08
2018-09-30T05:43:03.145Z,95819.16
2018-09-30T05:45:31.803Z,95817.05
2018-09-30T05:48:00.733Z,95813.23
2018-09-30T05:50:29.443Z,95820.72
2018-09-30T05:52:58.103Z,95819.05
2018-09-30T05:55:26.816Z,95818.83
2018-09-30T05:57:55.635Z,95823.55
2018-09-30T06:00:24.388Z,95822.86
2018-09-30T06:02:53.080Z,95823.42
2018-09-30T06:05:21.728Z,95824.70
2018-09-30T06:07:50.458Z,95819.72
2018-09-30T06:10:19.188Z,95833.42
2018-09-30T06:12:47.823Z,95834.25
2018-09-30T06:15:16.493Z,95835.69
2018-09-30T06:17:45.196Z,95834.53
2018-09-30T06:20:13.803Z,95835.41
2018-09-30T06:22:42.559Z,95831.58
2018-09-30T06:25:11.257Z,95839.37
2018-09-30T06:27:39.992Z,95842.64
2018-09-30T06:30:08.813Z,95845.88
2018-09-30T06:32:37.449Z,95850.03
2018-09-30T06:35:06.143Z,95851.70
2018-09-30T06:37:34.912Z,95859.63
2018-09-30T06:40:03.572Z,95857.34
2018-09-30T06:42:32.247Z,95863.85
2018-09-30T06:45:01.155Z,95856.28
2018-09-30T06:47:29.736Z,95861.56
2018-09-30T06:49:58.367Z,95865.43
2018-09-30T06:52:27.089Z,95860.18
2018-09-30T06:54:55.784Z,95862.14
2018-09-30T06:57:24.442Z,95870.89
2018-09-30T06:59:53.140Z,95870.41
2018-09-30T07:02:21.824Z,95874.26
2018-09-30T07:04:50.711Z,95876.31
2018-09-30T07:07:19.301Z,95876.34
2018-09-30T07:09:48.288Z,95874.80
2018-09-30T07:12:17.049Z,95870.30
2018-09-30T07:14:45.813Z,95868.03
2018-09-30T07:17:14.627Z,95867.84
2018-09-30T07:19:43.328Z,95875.27
2018-09-30T07:22:12.084Z,95879.09
2018-09-30T07:24:40.820Z,95868.52
2018-09-30T07:27:09.579Z,95875.31
2018-09-30T07:29:38.273Z,95871.35
2018-09-30T07:32:06.944Z,95877.25
2018-09-30T07:34:35.687Z,95878.16
2018-09-30T07:37:04.381Z,95881.55
2018-09-30T07:39:33.237Z,95881.31
2018-09-30T07:42:01.969Z,95884.92
2018-09-30T07:44:30.684Z,95885.16
2018-09-30T07:46:59.437Z,95888.33
2018-09-30T07:49:28.313Z,95883.80
2018-09-30T07:51:56.952Z,95891.19
2018-09-30T07:54:25.683Z,95888.56
2018-09-30T07:56:54.359Z,95891.40
2018-09-30T07:59:23.027Z,95898.61
2018-09-30T08:01:51.743Z,95888.52
2018-09-30T08:04:20.461Z,95886.66
2018-09-30T08:06:49.178Z,95891.86
2018-09-30T08:09:17.826Z,95885.39
2018-09-30T08:11:46.488Z,95893.55
2018-09-30T08:14:15.187Z,95890.63
2018-09-30T08:16:43.919Z,95894.06
2018-09-30T08:19:12.595Z,95883.27
2018-09-30T08:21:41.268Z,95891.67
2018-09-30T08:24:10.333Z,95886.54
2018-09-30T08:26:39.142Z,95888.63
2018-09-30T08:29:07.844Z,95891.92
2018-09-30T08:31:36.480Z,95888.41
2018-09-30T08:34:05.222Z,95885.83
2018-09-30T08:36:33.904Z,95879.94
2018-09-30T08:39:02.596Z,95884.47
2018-09-30T08:41:31.272Z,95885.83
2018-09-30T08:44:00.028Z,95889.88
2018-09-30T08:46:28.717Z,95883.03
2018-09-30T08:48:57.555Z,95761.48
2018-09-30T08:51:26.187Z,95879.13
2018-09-30T08:53:54.875Z,95879.95
2018-09-30T08:56:23.556Z,95869.86
2018-09-30T08:58:52.314Z,95873.09
2018-09-30T09:01:21.390Z,95871.38
2018-09-30T09:03:50.151Z,95872.43
2018-09-30T09:06:18.942Z,95871.53
2018-09-30T09:08:47.590Z,95869.48
2018-09-30T09:11:16.328Z,95866.00
2018-09-30T09:13:45.150Z,95862.11
2018-09-30T09:16:13.828Z,95864.33
2018-09-30T09:18:42.515Z,95794.88
2018-09-30T09:21:11.316Z,95826.48
2018-09-30T09:23:40.058Z,95859.91
2018-09-30T09:26:08.736Z,95854.14
2018-09-30T09:28:37.486Z,95857.55
2018-09-30T09:31:06.284Z,95851.66
2018-09-30T09:33:34.947Z,95850.22
2018-09-30T09:36:03.708Z,95850.67
2018-09-30T09:38:32.405Z,95843.48
2018-09-30T09:41:01.109Z,95843.70
2018-09-30T09:43:29.905Z,95840.47
2018-09-30T09:45:58.716Z,95842.34
2018-09-30T09:48:27.376Z,95837.11
2018-09-30T09:50:56.296Z,95838.55
2018-09-30T09:53:25.001Z,95841.19
2018-09-30T09:55:53.684Z,95838.85
2018-09-30T09:58:22.309Z,95836.05
2018-09-30T10:00:51.233Z,95832.31
2018-09-30T10:03:19.977Z,95842.41
2018-09-30T10:05:48.781Z,95838.26
2018-09-30T10:08:17.566Z,95845.45
2018-09-30T10:10:46.331Z,95841.21
2018-09-30T10:13:15.167Z,95841.27
2018-09-30T10:15:43.774Z,95840.61
2018-09-30T10:18:12.817Z,95685.33
2018-09-30T10:20:41.495Z,95836.70
2018-09-30T10:23:10.184Z,95840.91
2018-09-30T10:25:38.864Z,95826.25
2018-09-30T10:28:07.573Z,95830.06
2018-09-30T10:30:36.400Z,95833.19
2018-09-30T10:33:05.284Z,95833.47
2018-09-30T10:35:34.014Z,95827.62
2018-09-30T10:38:02.753Z,95835.29
2018-09-30T10:40:31.456Z,95836.45
2018-09-30T10:43:00.154Z,95819.54
2018-09-30T10:45:28.988Z,95828.70
2018-09-30T10:47:57.814Z,95832.87
2018-09-30T10:50:26.849Z,95818.85
2018-09-30T10:52:55.508Z,95825.83
2018-09-30T10:55:24.430Z,95819.44
2018-09-30T10:57:53.012Z,95817.39
2018-09-30T11:00:21.720Z,95810.83
2018-09-30T11:02:50.567Z,95808.25
2018-09-30T11:05:19.299Z,95810.45
2018-09-30T11:07:48.220Z,95805.25
2018-09-30T11:10:16.944Z,95799.06
2018-09-30T11:12:45.700Z,95805.55
2018-09-30T11:15:14.374Z,95801.45
2018-09-30T11:17:43.169Z,95804.84
2018-09-30T11:20:12.009Z,95800.74
2018-09-30T11:22:40.750Z,95787.81
2018-09-30T11:25:09.983Z,95795.88
2018-09-30T11:27:39.113Z,95792.08
2018-09-30T11:30:10.935Z,95782.77
2018-09-30T11:32:40.202Z,95790.72
2018-09-30T11:35:09.291Z,95786.61
2018-09-30T11:37:38.480Z,95782.22
2018-09-30T11:40:08.104Z,95785.28
2018-09-30T11:42:37.263Z,95788.36
2018-09-30T11:45:05.978Z,95787.88
2018-09-30T11:47:34.677Z,95786.80
2018-09-30T11:50:03.454Z,95786.58
2018-09-30T11:52:32.329Z,95786.67
2018-09-30T11:55:01.044Z,95786.91
2018-09-30T11:57:29.816Z,95791.42
2018-09-30T11:59:58.603Z,95788.14
2018-09-30T12:02:27.370Z,95778.20
2018-09-30T12:04:56.184Z,95781.59
2018-09-30T12:07:24.985Z,95778.67
2018-09-30T12:09:53.669Z,95781.92
2018-09-30T12:12:22.332Z,95773.91
2018-09-30T12:14:51.075Z,95770.23
2018-09-30T12:17:19.742Z,95768.64
2018-09-30T12:19:48.420Z,95590.70
2018-09-30T12:22:17.178Z,95768.05
2018-09-30T12:24:45.889Z,95771.47
2018-09-30T12:27:14.608Z,95768.32
2018-09-30T12:29:43.276Z,95760.09
2018-09-30T12:32:12.111Z,95755.19
2018-09-30T12:34:41.204Z,95748.96
2018-09-30T12:37:09.988Z,95747.60
2018-09-30T12:39:38.658Z,95746.08
2018-09-30T12:42:07.305Z,95740.72
2018-09-30T12:44:35.975Z,95745.05
2018-09-30T12:47:04.993Z,95738.80
2018-09-30T12:49:33.640Z,95734.61
2018-09-30T12:52:02.307Z,95732.13
2018-09-30T12:54:31.000Z,95730.16
2018-09-30T12:56:59.766Z,95730.36
2018-09-30T12:59:28.428Z,95725.16
2018-09-30T13:01:57.089Z,95737.50
2018-09-30T13:04:25.764Z,95727.74
2018-09-30T13:06:54.437Z,95740.05
2018-09-30T13:09:23.155Z,95729.78
2018-09-30T13:11:51.944Z,95728.30
2018-09-30T13:14:20.771Z,95730.14
2018-09-30T13:16:49.482Z,95725.78
2018-09-30T13:19:18.205Z,95728.05
2018-09-30T13:21:46.924Z,95720.70
2018-09-30T13:24:15.617Z,95718.30
2018-09-30T13:26:44.386Z,95715.34
2018-09-30T13:29:13.169Z,95717.42
2018-09-30T13:31:41.949Z,95717.11
2018-09-30T13:34:10.756Z,95718.70
2018-09-30T13:36:39.460Z,95723.30
2018-09-30T13:39:09.751Z,95711.88
2018-09-30T13:41:38.865Z,95712.14
2018-09-30T13:44:07.676Z,95716.88
2018-09-30T13:46:36.942Z,95708.12
2018-09-30T13:49:05.666Z,95706.19
2018-09-30T13:51:34.449Z,95711.03
2018-09-30T13:54:03.189Z,95705.03
2018-09-30T13:56:32.009Z,95707.43
2018-09-30T13:59:00.717Z,95706.40
2018-09-30T14:01:29.483Z,95716.63
2018-09-30T14:03:58.429Z,95718.27
2018-09-30T14:06:27.200Z,95709.81
2018-09-30T14:08:55.988Z,95715.44
2018-09-30T14:11:24.860Z,95718.63
2018-09-30T14:13:53.585Z,95711.28
2018-09-30T14:16:22.340Z,95711.46
2018-09-30T14:18:51.104Z,95712.81
2018-09-30T14:21:19.837Z,95723.31
2018-09-30T14:23:48.669Z,95724.01
2018-09-30T14:26:17.554Z,95721.53
2018-09-30T14:36:17.923Z,95721.09
2018-09-30T14:38:46.740Z,95717.25
2018-09-30T14:41:15.507Z,95710.94
2018-09-30T14:43:44.420Z,95710.94
2018-09-30T14:46:13.191Z,95717.51
2018-09-30T14:48:42.063Z,95720.98
2018-09-30T14:51:10.878Z,95718.05
2018-09-30T14:53:39.588Z,95715.58
2018-09-30T14:56:08.275Z,95723.16
2018-09-30T14:58:37.127Z,95719.18
2018-09-30T15:01:05.873Z,95726.74
2018-09-30T15:03:34.946Z,95722.67
2018-09-30T15:06:03.712Z,95713.75
2018-09-30T15:08:32.419Z,95726.73
2018-09-30T15:11:01.084Z,95726.50
2018-09-30T15:13:29.835Z,95726.13
2018-09-30T15:15:58.631Z,95729.36
2018-09-30T15:18:27.344Z,95723.71
2018-09-30T15:20:56.576Z,95720.69
2018-09-30T15:23:25.934Z,95718.30
2018-09-30T15:25:54.688Z,95718.85
2018-09-30T15:28:23.380Z,95722.32
2018-09-30T15:30:52.154Z,95722.06
2018-09-30T15:33:20.877Z,95725.84
2018-09-30T15:35:49.742Z,95727.84
2018-09-30T15:38:18.405Z,95718.27
2018-09-30T15:40:47.155Z,95719.47
2018-09-30T15:43:15.873Z,95718.91
2018-09-30T15:45:44.688Z,95715.16
2018-09-30T15:48:13.432Z,95724.17
2018-09-30T15:50:42.177Z,95720.16
2018-09-30T15:53:10.836Z,95724.50
2018-09-30T15:55:39.604Z,95721.53
2018-09-30T15:58:08.308Z,95735.82
2018-09-30T16:00:37.068Z,95738.81
2018-09-30T16:03:05.744Z,95726.38
2018-09-30T16:05:34.544Z,95727.48
2018-09-30T16:08:03.356Z,95728.62
2018-09-30T16:10:32.350Z,95724.27
2018-09-30T16:13:01.181Z,95719.94
2018-09-30T16:15:29.848Z,95713.21
2018-09-30T16:17:58.718Z,95668.59
2018-09-30T16:20:27.454Z,95716.44
2018-09-30T16:22:56.115Z,95716.44
2018-09-30T16:25:24.915Z,95709.25
2018-09-30T16:27:53.725Z,95721.20
2018-09-30T16:30:22.580Z,95687.33
2018-09-30T16:32:51.302Z,95716.62
2018-09-30T16:35:20.214Z,95717.33
2018-09-30T16:37:48.978Z,95726.07
2018-09-30T16:40:17.686Z,95723.64
2018-09-30T16:42:46.379Z,95733.52
2018-09-30T16:45:15.100Z,95723.94
2018-09-30T16:47:43.824Z,95736.55
2018-09-30T16:50:12.625Z,95734.34
2018-09-30T16:52:41.565Z,95724.33
2018-09-30T16:55:10.602Z,95720.53
2018-09-30T16:57:39.527Z,95725.93
2018-09-30T17:00:09.622Z,95723.23
2018-09-30T17:02:38.376Z,95731.63
2018-09-30T17:05:07.206Z,95723.16
2018-09-30T17:07:36.060Z,95720.08
2018-09-30T17:10:05.001Z,95722.70
2018-09-30T17:12:33.847Z,95724.67
2018-09-30T17:15:02.656Z,95725.79
2018-09-30T17:17:31.536Z,95725.14
2018-09-30T17:20:00.262Z,95730.81
2018-09-30T17:22:28.959Z,95722.59
2018-09-30T17:24:57.808Z,95723.87
2018-09-30T17:27:26.574Z,95728.16
2018-09-30T17:29:55.630Z,95726.81
2018-09-30T17:32:24.694Z,95725.13
2018-09-30T17:34:53.353Z,95723.53
2018-09-30T17:37:22.148Z,95728.84
2018-09-30T17:39:51.097Z,95730.11
2018-09-30T17:42:19.862Z,95731.61
2018-09-30T17:44:48.548Z,95735.02
2018-09-30T17:47:17.372Z,95739.29
2018-09-30T17:49:45.996Z,95743.80
2018-09-30T17:52:14.745Z,95731.01
2018-09-30T17:54:44.527Z,95739.58
2018-09-30T17:57:13.329Z,95734.60
2018-09-30T17:59:42.240Z,95737.12
2018-09-30T18:02:11.187Z,95736.88
2018-09-30T18:04:40.276Z,95734.97
2018-09-30T18:07:09.039Z,95733.53
2018-09-30T18:09:38.154Z,95736.27
2018-09-30T18:12:07.508Z,95739.92
2018-09-30T18:14:36.422Z,95739.43
2018-09-30T18:17:05.276Z,95733.11
2018-09-30T18:19:34.159Z,95733.26
2018-09-30T18:22:03.084Z,95736.23
2018-09-30T18:24:32.172Z,95735.22
2018-09-30T18:27:01.324Z,95738.47
2018-09-30T18:29:30.392Z,95739.58
2018-09-30T18:31:59.537Z,95737.80
2018-09-30T18:34:28.512Z,95739.27
2018-09-30T18:36:57.492Z,95734.17
2018-09-30T18:39:26.383Z,95736.66
2018-09-30T18:41:55.268Z,95734.17
2018-09-30T18:44:24.250Z,95733.07
2018-09-30T18:46:53.160Z,95731.94
2018-09-30T18:49:21.945Z,95728.56
2018-09-30T18:51:50.732Z,95728.40
2018-09-30T18:54:19.551Z,95730.77
2018-09-30T18:56:48.242Z,95720.84
2018-09-30T18:59:17.054Z,95719.75
2018-09-30T19:01:45.797Z,95724.02
2018-09-30T19:04:14.493Z,95722.45
2018-09-30T19:06:43.269Z,95717.94
2018-09-30T19:09:12.009Z,95708.48
2018-09-30T19:11:40.926Z,95713.55
2018-09-30T19:14:09.661Z,95711.40
2018-09-30T19:16:38.912Z,95712.20
2018-09-30T19:19:07.992Z,95716.80
2018-09-30T19:21:36.641Z,95707.77
2018-09-30T19:24:05.303Z,95709.45
2018-09-30T19:26:34.033Z,95703.91
2018-09-30T19:29:03.004Z,95706.94
2018-09-30T19:31:31.789Z,95704.79
2018-09-30T19:34:00.453Z,95702.09
2018-09-30T19:36:29.197Z,95710.66
2018-09-30T19:38:57.955Z,95706.61
2018-09-30T19:41:26.651Z,95703.91
2018-09-30T19:43:55.351Z,95688.13
2018-09-30T19:46:24.018Z,95695.80
2018-09-30T19:48:52.950Z,95691.42
2018-09-30T19:51:21.709Z,95689.84
2018-09-30T19:53:50.358Z,95694.45
2018-09-30T19:56:19.069Z,95689.77
2018-09-30T19:58:47.954Z,95686.35
2018-09-30T20:01:16.614Z,95684.54
2018-09-30T20:03:45.359Z,95678.50
2018-09-30T20:06:14.065Z,95677.36
2018-09-30T20:08:42.892Z,95684.58
2018-09-30T20:11:11.639Z,95666.81
2018-09-30T20:13:40.401Z,95673.38
2018-09-30T20:16:09.092Z,95671.34
2018-09-30T20:18:37.762Z,95663.46
2018-09-30T20:21:06.538Z,95663.22
2018-09-30T20:23:35.196Z,95664.23
2018-09-30T20:26:03.840Z,95659.29
2018-09-30T20:28:32.520Z,95660.98
2018-09-30T20:31:01.181Z,95660.09
2018-09-30T20:33:29.840Z,95654.50
2018-09-30T20:35:58.543Z,95653.39
2018-09-30T20:38:27.206Z,95648.64
2018-09-30T20:40:55.919Z,95647.75
2018-09-30T20:43:24.580Z,95645.94
2018-09-30T20:45:53.337Z,95636.48
2018-09-30T20:48:21.979Z,95644.03
2018-09-30T20:50:50.644Z,95643.88
2018-09-30T20:53:19.380Z,95638.27
2018-09-30T20:55:48.111Z,95637.38
2018-09-30T20:58:16.860Z,95634.24
2018-09-30T21:00:45.572Z,95633.69
2018-09-30T21:03:14.292Z,95631.08
2018-09-30T21:06:20.818Z,95624.89
2018-09-30T21:08:49.473Z,95621.30
2018-09-30T21:11:18.216Z,95622.33
2018-09-30T21:13:47.060Z,95625.34
2018-09-30T21:16:15.808Z,95623.44
2018-09-30T21:18:44.674Z,95617.83
2018-09-30T21:21:13.381Z,95615.58
2018-09-30T21:23:42.141Z,95611.53
2018-09-30T21:26:10.943Z,95615.53
2018-09-30T21:28:39.651Z,95608.77
2018-09-30T21:31:08.396Z,95611.48
2018-09-30T21:33:37.080Z,95600.46
2018-09-30T21:36:05.745Z,95602.36
2018-09-30T21:38:34.461Z,95598.87
2018-09-30T21:41:03.243Z,95597.97
2018-09-30T21:43:32.108Z,95598.67
2018-09-30T21:46:00.874Z,95591.92
2018-09-30T21:48:29.691Z,95580.33
2018-09-30T21:50:58.340Z,95579.22
2018-09-30T21:53:27.055Z,95576.06
2018-09-30T21:55:55.773Z,95574.37
2018-09-30T21:58:24.533Z,95570.56
2018-09-30T22:01:01.501Z,95572.37
2018-09-30T22:03:30.397Z,95561.33
2018-09-30T22:05:59.250Z,95570.92
2018-09-30T22:08:28.021Z,95566.53
2018-09-30T22:10:56.923Z,95560.88
2018-09-30T22:13:25.703Z,95558.98
2018-09-30T22:15:54.430Z,95551.44
2018-09-30T22:18:23.133Z,95559.42
2018-09-30T22:20:51.819Z,95550.52
2018-09-30T22:23:20.546Z,95549.97
2018-09-30T22:25:49.283Z,95545.91
2018-09-30T22:28:17.993Z,95541.63
2018-09-30T22:30:46.648Z,95547.56
2018-09-30T22:33:15.319Z,95543.15
2018-09-30T22:35:43.970Z,95542.14
2018-09-30T22:38:12.718Z,95541.80
2018-09-30T22:40:41.387Z,95546.95
2018-09-30T22:43:10.075Z,95534.80
2018-09-30T22:45:38.834Z,95545.24
2018-09-30T22:48:07.635Z,95539.08
2018-09-30T22:50:36.415Z,95543.89
2018-09-30T22:53:05.112Z,95538.19
2018-09-30T22:55:33.855Z,95546.30
2018-09-30T22:58:02.880Z,95537.19
2018-09-30T23:00:31.600Z,95527.28
2018-09-30T23:03:00.354Z,95526.39
2018-09-30T23:05:29.061Z,95523.81
2018-09-30T23:07:57.704Z,95522.00
2018-09-30T23:10:26.484Z,95523.59
2018-09-30T23:12:55.236Z,95514.94
2018-09-30T23:15:23.915Z,95518.50
2018-09-30T23:17:52.639Z,95515.34
2018-09-30T23:20:21.400Z,95516.94
2018-09-30T23:22:50.077Z,95505.00
2018-09-30T23:25:18.882Z,95503.10
2018-09-30T23:27:47.583Z,95502.98
2018-09-30T23:30:16.274Z,95497.59
2018-09-30T23:32:44.934Z,95501.64
2018-09-30T23:35:13.598Z,95493.08
2018-09-30T23:37:42.269Z,95489.03
2018-09-30T23:40:10.909Z,95491.24
2018-09-30T23:42:39.596Z,95500.23
2018-09-30T23:45:08.299Z,95495.98
2018-09-30T23:47:37.022Z,95497.88
2018-09-30T23:50:05.716Z,95495.08
2018-09-30T23:52:34.451Z,95480.23
2018-09-30T23:55:03.119Z,95480.69
2018-09-30T23:57:31.773Z,95473.24
